Time;durP1;ratioP1;P1;durP2;ratioP2;P2;SDS_P1;SDS_P2;PMS_P1;PMS_P2;Temp;Humidity;BMP_temperature;BMP_pressure;BME280_temperature;BME280_humidity;BME280_pressure;Samples;Min_cycle;Max_cycle;Signal;HPM_P1;HPM_P2
2024/02/01 00:01:00;;;;;;;9.40;5.00;;;;;;;2.41;78.21;101528.34;104912;1257;138320;-66
2024/02/01 00:03:45;;;;;;;7.50;4.50;;;;;;;2.46;78.03;101519.92;104885;1256;67439;-66
2024/02/01 00:06:12;;;;;;;13.40;5.20;;;;;;;2.51;77.89;101514.16;104736;1260;138449;-65
2024/02/01 00:08:38;;;;;;;7.40;3.90;;;;;;;2.54;77.71;101508.83;105008;1269;61505;-67
2024/02/01 00:11:05;;;;;;;7.60;4.40;;;;;;;2.56;77.67;101505.51;104804;1258;138768;-65
2024/02/01 00:13:32;;;;;;;7.40;4.10;;;;;;;2.59;77.65;101503.24;104956;1258;75222;-67
2024/02/01 00:15:58;;;;;;;9.60;4.60;;;;;;;2.61;77.51;101503.77;104945;1260;65572;-66
2024/02/01 00:18:25;;;;;;;7.30;4.10;;;;;;;2.62;77.43;101501.43;104661;1257;137890;-66
2024/02/01 00:20:52;;;;;;;8.90;4.30;;;;;;;2.64;77.44;101498.05;104947;1260;61455;-66
2024/02/01 00:23:18;;;;;;;9.80;3.90;;;;;;;2.68;77.12;101489.52;104971;1255;137971;-66
2024/02/01 00:25:45;;;;;;;13.60;5.00;;;;;;;2.71;77.12;101491.13;105100;1260;74072;-67
2024/02/01 00:28:12;;;;;;;6.00;3.90;;;;;;;2.73;76.99;101488.49;104797;1260;67132;-67
2024/02/01 00:30:41;;;;;;;6.20;3.90;;;;;;;2.74;76.91;101486.30;104988;1258;137699;-66
2024/02/01 00:33:07;;;;;;;8.20;3.90;;;;;;;2.74;76.86;101487.31;104800;1258;61647;-66
2024/02/01 00:35:34;;;;;;;7.70;4.20;;;;;;;2.75;76.81;101482.86;104866;1259;138352;-66
2024/02/01 00:38:01;;;;;;;11.10;3.70;;;;;;;2.77;76.80;101485.13;104948;1258;74398;-67
2024/02/01 00:40:27;;;;;;;7.50;3.90;;;;;;;2.79;76.63;101476.05;104940;1260;67342;-66
2024/02/01 00:42:54;;;;;;;6.80;3.60;;;;;;;2.81;76.60;101472.55;105030;1259;138273;-66
2024/02/01 00:45:21;;;;;;;8.90;3.80;;;;;;;2.83;76.50;101471.66;105047;1254;62052;-66
2024/02/01 00:47:48;;;;;;;5.00;3.50;;;;;;;2.86;76.52;101467.85;104995;1255;138079;-66
2024/02/01 00:50:15;;;;;;;7.10;4.00;;;;;;;2.88;76.42;101461.05;105098;1255;74786;-67
2024/02/01 00:52:42;;;;;;;8.30;4.00;;;;;;;2.90;76.38;101463.77;105029;1258;67458;-67
2024/02/01 00:55:09;;;;;;;9.20;3.90;;;;;;;2.91;76.31;101444.31;109036;1254;137623;-66
2024/02/01 00:57:36;;;;;;;5.60;4.00;;;;;;;2.92;76.16;101437.75;108999;1254;59018;-66
2024/02/01 01:00:04;;;;;;;5.30;4.20;;;;;;;2.92;76.04;101435.48;108902;1254;137838;-59
2024/02/01 01:02:31;;;;;;;6.40;4.50;;;;;;;2.93;76.15;101428.11;109217;1254;75417;-60
2024/02/01 01:04:57;;;;;;;9.10;4.90;;;;;;;2.95;75.83;101418.64;109173;1254;68191;-59
2024/02/01 01:07:24;;;;;;;8.50;4.70;;;;;;;2.96;75.79;101409.71;109046;1254;137918;-58
2024/02/01 01:09:52;;;;;;;9.20;5.10;;;;;;;2.98;75.75;101399.13;109141;1254;59283;-59
2024/02/01 01:12:19;;;;;;;5.80;4.80;;;;;;;3.00;75.71;101392.98;109097;1254;138436;-60
2024/02/01 01:14:46;;;;;;;8.80;5.00;;;;;;;3.01;75.73;101397.64;109194;1254;75914;-66
2024/02/01 01:17:13;;;;;;;6.40;5.70;;;;;;;3.05;75.73;101389.86;109069;1254;138288;-65
2024/02/01 01:19:39;;;;;;;9.00;6.10;;;;;;;3.08;75.71;101387.65;109153;1254;73623;-66
2024/02/01 01:22:06;;;;;;;6.60;5.90;;;;;;;3.10;75.52;101378.41;109044;1254;59055;-60
2024/02/01 01:24:33;;;;;;;9.70;7.10;;;;;;;3.11;75.43;101368.60;109050;1254;137538;-59
2024/02/01 01:27:00;;;;;;;9.80;6.80;;;;;;;3.12;75.46;101364.33;109235;1254;74761;-59
2024/02/01 01:29:26;;;;;;;7.90;6.50;;;;;;;3.13;75.46;101352.45;109062;1254;138967;-59
2024/02/01 01:31:53;;;;;;;8.80;6.70;;;;;;;3.15;75.31;101345.60;109140;1254;72820;-58
2024/02/01 01:34:20;;;;;;;7.90;6.80;;;;;;;3.16;75.26;101333.56;108974;1254;59041;-65
2024/02/01 01:36:46;;;;;;;7.90;6.80;;;;;;;3.17;75.19;101324.95;109084;1254;138498;-66
2024/02/01 01:39:13;;;;;;;7.90;7.10;;;;;;;3.19;75.18;101321.80;108125;1254;73907;-59
2024/02/01 01:41:45;;;;;;;10.80;7.30;;;;;;;3.23;75.22;101309.70;104870;1254;138077;-59
2024/02/01 01:44:12;;;;;;;7.10;6.40;;;;;;;3.25;75.10;101302.75;105164;1260;71473;-59
2024/02/01 01:46:39;;;;;;;7.50;6.70;;;;;;;3.25;75.05;101289.58;104946;1259;61350;-59
2024/02/01 01:49:07;;;;;;;7.80;6.60;;;;;;;3.26;75.03;101283.17;104967;1258;138091;-59
2024/02/01 01:51:33;;;;;;;8.20;7.20;;;;;;;3.24;75.07;101276.48;109156;1254;75531;-59
2024/02/01 01:54:00;;;;;;;8.20;6.80;;;;;;;3.22;74.95;101271.30;109151;1254;137653;-59
2024/02/01 01:56:27;;;;;;;7.90;7.10;;;;;;;3.21;74.89;101269.02;107856;1257;71196;-59
2024/02/01 01:58:53;;;;;;;9.10;7.10;;;;;;;3.21;74.97;101258.77;104836;1264;61252;-59
2024/02/01 02:01:20;;;;;;;8.10;6.90;;;;;;;3.20;74.98;101252.80;104718;1261;138277;-58
2024/02/01 02:03:47;;;;;;;7.40;6.50;;;;;;;3.18;75.02;101238.30;104901;1254;75115;-58
2024/02/01 02:06:14;;;;;;;7.80;7.00;;;;;;;3.17;74.98;101230.92;104931;1254;138717;-58
2024/02/01 02:08:40;;;;;;;9.00;6.70;;;;;;;3.16;74.96;101226.73;105032;1257;71698;-59
2024/02/01 02:11:08;;;;;;;7.50;6.70;;;;;;;3.16;75.13;101208.87;104934;1254;139345;-59
2024/02/01 02:13:35;;;;;;;7.30;6.60;;;;;;;3.17;75.00;101199.39;104910;1254;61161;-59
2024/02/01 02:16:02;;;;;;;8.10;7.30;;;;;;;3.18;75.09;101197.00;108364;1254;75544;-59
2024/02/01 02:18:29;;;;;;;9.30;7.00;;;;;;;3.21;75.13;101185.92;104913;1254;137537;-59
2024/02/01 02:20:56;;;;;;;7.30;6.50;;;;;;;3.22;75.13;101182.00;105030;1254;73636;-60
2024/02/01 02:23:23;;;;;;;7.90;7.00;;;;;;;3.22;75.01;101168.77;109027;1254;137797;-58
2024/02/01 02:25:49;;;;;;;8.70;7.80;;;;;;;3.20;75.01;101158.63;109199;1255;60147;-66
2024/02/01 02:28:16;;;;;;;8.80;7.50;;;;;;;3.20;74.93;101148.91;108977;1254;74966;-65
2024/02/01 02:30:43;;;;;;;7.80;7.00;;;;;;;3.18;74.95;101133.73;109071;1254;138669;-65
2024/02/01 02:33:09;;;;;;;10.20;8.10;;;;;;;3.17;74.86;101122.55;108981;1254;73550;-65
2024/02/01 02:35:36;;;;;;;9.90;8.30;;;;;;;3.17;74.94;101107.98;109073;1254;139405;-66
2024/02/01 02:38:03;;;;;;;8.70;7.70;;;;;;;3.16;74.88;101097.34;109187;1254;59017;-65
2024/02/01 02:40:30;;;;;;;9.60;7.00;;;;;;;3.16;74.86;101095.98;109190;1254;75218;-65
2024/02/01 02:42:56;;;;;;;8.30;7.30;;;;;;;3.18;74.98;101088.77;109074;1254;137849;-66
2024/02/01 02:45:23;;;;;;;9.50;7.40;;;;;;;3.20;74.92;101087.52;109237;1254;72168;-66
2024/02/01 02:47:51;;;;;;;8.30;7.40;;;;;;;3.22;74.88;101084.33;109080;1254;140279;-65
2024/02/01 02:50:17;;;;;;;8.70;7.40;;;;;;;3.23;74.88;101072.08;108972;1254;61525;-65
2024/02/01 02:52:44;;;;;;;10.30;8.50;;;;;;;3.23;74.84;101062.39;109171;1254;75435;-65
2024/02/01 02:55:11;;;;;;;9.60;8.20;;;;;;;3.24;74.95;101061.05;108854;1257;137929;-59
2024/02/01 02:57:37;;;;;;;10.20;8.40;;;;;;;3.25;74.87;101064.60;109160;1254;73058;-59
2024/02/01 03:00:05;;;;;;;8.50;7.60;;;;;;;3.26;74.82;101055.48;109118;1254;138801;-59
2024/02/01 03:02:32;;;;;;;8.00;7.20;;;;;;;3.29;74.95;101055.82;109179;1254;61616;-59
2024/02/01 03:04:59;;;;;;;10.40;7.50;;;;;;;3.31;74.83;101055.77;109172;1254;73286;-58
2024/02/01 03:07:26;;;;;;;7.80;6.90;;;;;;;3.36;75.04;101048.39;109168;1254;65904;-58
2024/02/01 03:09:53;;;;;;;8.30;6.60;;;;;;;3.39;74.93;101040.44;106100;1254;72303;-60
2024/02/01 03:12:20;;;;;;;7.70;6.50;;;;;;;3.43;74.89;101046.02;104901;1261;137964;-59
2024/02/01 03:14:49;;;;;;;7.30;6.40;;;;;;;3.45;74.94;101040.98;105055;1256;62053;-66
2024/02/01 03:17:18;;;;;;;8.20;6.60;;;;;;;3.46;74.82;101035.48;109011;1254;138191;-67
2024/02/01 03:19:49;;;;;;;8.80;7.10;;;;;;;3.47;74.85;101030.83;109187;1254;64831;-67
2024/02/01 03:22:19;;;;;;;8.30;7.10;;;;;;;3.47;74.85;101029.98;109173;1254;72215;-66
2024/02/01 03:24:46;;;;;;;9.90;7.50;;;;;;;3.47;74.83;101030.51;109067;1254;137611;-66
2024/02/01 03:27:14;;;;;;;10.10;7.60;;;;;;;3.46;74.61;101030.25;109167;1256;59413;-66
2024/02/01 03:29:42;;;;;;;13.30;8.60;;;;;;;3.44;74.80;101023.20;109028;1257;138627;-66
2024/02/01 03:32:09;;;;;;;9.30;7.60;;;;;;;3.42;74.72;101016.69;108887;1254;67873;-66
2024/02/01 03:34:36;;;;;;;9.30;7.70;;;;;;;3.42;74.77;101015.45;108957;1254;72657;-66
2024/02/01 03:37:03;;;;;;;11.40;7.50;;;;;;;3.42;74.77;101015.65;109076;1254;138634;-66
2024/02/01 03:39:31;;;;;;;8.90;7.20;;;;;;;3.43;74.74;101013.40;109033;1254;61353;-66
2024/02/01 03:41:58;;;;;;;9.90;7.80;;;;;;;3.44;74.77;101011.58;109122;1254;138315;-67
2024/02/01 03:44:25;;;;;;;8.20;7.00;;;;;;;3.47;74.95;101009.13;109173;1254;64920;-67
2024/02/01 03:46:53;;;;;;;10.80;7.80;;;;;;;3.49;74.81;100997.63;109142;1254;72849;-66
2024/02/01 03:49:20;;;;;;;8.70;7.40;;;;;;;3.53;74.81;100997.31;109001;1257;138288;-66
2024/02/01 03:51:47;;;;;;;7.70;7.00;;;;;;;3.56;74.97;100992.68;108976;1256;60058;-67
2024/02/01 03:54:14;;;;;;;9.70;7.80;;;;;;;3.59;74.82;100993.02;109085;1256;137549;-66
2024/02/01 03:56:41;;;;;;;10.50;8.30;;;;;;;3.62;74.92;100990.58;106332;1259;67619;-66
2024/02/01 03:59:09;;;;;;;9.60;7.90;;;;;;;3.65;74.91;100995.08;104739;1260;139313;-65
2024/02/01 04:01:36;;;;;;;10.00;8.30;;;;;;;3.68;74.92;100987.27;109088;1255;64943;-65
2024/02/01 04:04:05;;;;;;;12.30;9.20;;;;;;;3.70;75.00;100980.77;107772;1256;61365;-65
2024/02/01 04:06:35;;;;;;;10.30;8.40;;;;;;;3.73;75.07;100985.99;108977;1256;138990;-66
2024/02/01 04:09:03;;;;;;;11.30;8.50;;;;;;;3.77;75.03;100986.73;109145;1255;67084;-65
2024/02/01 04:11:30;;;;;;;11.00;8.80;;;;;;;3.81;75.17;100986.25;108862;1256;139101;-64
2024/02/01 04:13:57;;;;;;;10.90;8.70;;;;;;;3.85;75.33;100990.63;109084;1254;59038;-65
2024/02/01 04:16:24;;;;;;;10.70;8.70;;;;;;;3.87;75.40;100986.60;108966;1254;60471;-65
2024/02/01 04:18:52;;;;;;;11.40;9.00;;;;;;;3.89;75.59;100987.40;109071;1254;138250;-64
2024/02/01 04:21:19;;;;;;;11.00;9.20;;;;;;;3.92;75.64;100983.38;109232;1254;67524;-65
2024/02/01 04:23:45;;;;;;;13.20;9.60;;;;;;;3.93;75.64;100983.27;109053;1254;137798;-65
2024/02/01 04:26:15;;;;;;;11.40;9.70;;;;;;;3.94;75.82;100973.41;109159;1254;58874;-66
2024/02/01 04:28:43;;;;;;;11.30;9.60;;;;;;;3.93;75.95;100970.06;109206;1254;59440;-66
2024/02/01 04:31:10;;;;;;;11.40;9.50;;;;;;;3.91;76.07;100965.81;109058;1254;139360;-65
2024/02/01 04:33:40;;;;;;;12.20;8.70;;;;;;;3.89;76.18;100960.14;109100;1254;67242;-65
2024/02/01 04:36:07;;;;;;;12.30;10.00;;;;;;;3.87;76.22;100959.35;109066;1254;138393;-66
2024/02/01 04:38:36;;;;;;;11.50;9.80;;;;;;;3.87;76.27;100952.77;109161;1254;59322;-58
2024/02/01 04:41:05;;;;;;;12.60;10.10;;;;;;;3.86;76.38;100948.01;108844;1256;138433;-59
2024/02/01 04:43:32;;;;;;;11.50;9.70;;;;;;;3.86;76.57;100948.34;109204;1254;74763;-58
2024/02/01 04:45:59;;;;;;;12.00;9.70;;;;;;;3.86;76.69;100944.70;109180;1254;67147;-58
2024/02/01 04:48:25;;;;;;;14.70;9.60;;;;;;;3.88;76.73;100946.00;109098;1254;138608;-59
2024/02/01 04:50:52;;;;;;;12.40;9.80;;;;;;;3.88;76.80;100951.23;109133;1256;59105;-59
2024/02/01 04:53:19;;;;;;;12.40;10.00;;;;;;;3.87;76.98;100947.36;106588;1259;141144;-66
2024/02/01 04:55:49;;;;;;;10.70;9.50;;;;;;;3.83;76.87;100953.58;105001;1259;75160;-66
2024/02/01 04:58:19;;;;;;;13.00;10.00;;;;;;;3.78;76.93;100958.50;105036;1256;65846;-66
2024/02/01 05:00:46;;;;;;;11.40;9.60;;;;;;;3.73;77.04;100959.25;109076;1254;138947;-67
2024/02/01 05:03:15;;;;;;;12.80;10.60;;;;;;;3.69;77.27;100953.13;109192;1254;58831;-66
2024/02/01 05:05:47;;;;;;;12.60;9.50;;;;;;;3.66;77.20;100952.08;109082;1254;138791;-66
2024/02/01 05:08:14;;;;;;;10.40;9.10;;;;;;;3.66;77.39;100955.01;109161;1254;75329;-67
2024/02/01 05:10:44;;;;;;;11.80;8.70;;;;;;;3.66;77.47;100956.23;109246;1254;64358;-67
2024/02/01 05:13:14;;;;;;;11.00;8.40;;;;;;;3.66;77.58;100948.79;109080;1254;138528;-66
2024/02/01 05:15:47;;;;;;;11.10;9.00;;;;;;;3.66;77.58;100949.84;109145;1254;59242;-66
2024/02/01 05:18:14;;;;;;;11.80;9.50;;;;;;;3.67;77.64;100953.36;109089;1255;140246;-66
2024/02/01 05:20:42;;;;;;;11.00;8.90;;;;;;;3.68;77.85;100955.50;108972;1254;75721;-66
2024/02/01 05:23:09;;;;;;;10.90;8.70;;;;;;;3.70;77.75;100949.70;109049;1254;138740;-66
2024/02/01 05:25:40;;;;;;;9.90;8.80;;;;;;;3.72;77.94;100944.63;109145;1254;73765;-66
2024/02/01 05:28:09;;;;;;;11.50;8.80;;;;;;;3.76;77.92;100938.21;109142;1254;59600;-66
2024/02/01 05:30:36;;;;;;;11.40;9.00;;;;;;;3.78;77.90;100941.10;108841;1256;138587;-66
2024/02/01 05:33:03;;;;;;;10.00;8.50;;;;;;;3.79;78.05;100944.63;109149;1255;74216;-66
2024/02/01 05:35:33;;;;;;;10.30;8.10;;;;;;;3.80;77.97;100948.21;109017;1256;137993;-66
2024/02/01 05:38:00;;;;;;;10.40;8.40;;;;;;;3.81;78.06;100947.20;109190;1254;72714;-66
2024/02/01 05:40:28;;;;;;;14.30;8.90;;;;;;;3.81;78.08;100942.83;108935;1254;59040;-66
2024/02/01 05:42:54;;;;;;;10.10;8.50;;;;;;;3.80;78.10;100939.01;109098;1254;139277;-66
2024/02/01 05:45:22;;;;;;;11.60;8.80;;;;;;;3.80;78.15;100941.77;109204;1254;75816;-66
2024/02/01 05:47:51;;;;;;;10.90;8.30;;;;;;;3.81;78.28;100937.15;109103;1254;138254;-66
2024/02/01 05:50:18;;;;;;;9.90;8.10;;;;;;;3.83;78.30;100939.98;109157;1254;73862;-66
2024/02/01 05:52:44;;;;;;;10.30;8.10;;;;;;;3.85;78.35;100946.71;108951;1254;59242;-66
2024/02/01 05:55:13;;;;;;;9.40;7.70;;;;;;;3.89;78.47;100946.45;108873;1254;139060;-66
2024/02/01 05:57:40;;;;;;;8.60;7.50;;;;;;;3.93;78.49;100943.52;109198;1254;75145;-66
2024/02/01 06:00:10;;;;;;;9.20;8.20;;;;;;;3.96;78.58;100941.09;109061;1254;138223;-66
2024/02/01 06:02:36;;;;;;;9.10;7.60;;;;;;;3.99;78.52;100941.05;109182;1254;72669;-65
2024/02/01 06:05:04;;;;;;;8.00;6.80;;;;;;;4.00;78.51;100935.03;108866;1254;138633;-65
2024/02/01 06:07:31;;;;;;;7.80;6.80;;;;;;;4.03;78.60;100932.42;109152;1254;60186;-66
2024/02/01 06:09:59;;;;;;;9.10;7.10;;;;;;;4.07;78.69;100932.83;109204;1254;76048;-65
2024/02/01 06:12:27;;;;;;;8.10;7.00;;;;;;;4.10;78.72;100936.95;109135;1254;138564;-65
2024/02/01 06:14:54;;;;;;;8.30;7.10;;;;;;;4.12;78.87;100940.22;109176;1254;72529;-66
2024/02/01 06:17:21;;;;;;;8.60;7.20;;;;;;;4.16;78.85;100940.77;109099;1254;137671;-65
2024/02/01 06:19:48;;;;;;;8.90;7.30;;;;;;;4.17;78.76;100940.64;109178;1254;60082;-66
2024/02/01 06:22:15;;;;;;;8.60;7.10;;;;;;;4.17;78.88;100937.36;105853;1254;75633;-66
2024/02/01 06:24:41;;;;;;;8.70;6.40;;;;;;;4.18;78.96;100940.52;104956;1256;137726;-66
2024/02/01 06:27:08;;;;;;;9.20;7.00;;;;;;;4.20;79.05;100936.97;104969;1257;73698;-66
2024/02/01 06:29:37;;;;;;;8.40;6.90;;;;;;;4.21;79.01;100933.70;104906;1254;138567;-66
2024/02/01 06:32:12;;;;;;;11.10;6.50;;;;;;;4.20;79.16;100933.16;109147;1254;59616;-65
2024/02/01 06:34:39;;;;;;;7.80;6.40;;;;;;;4.18;79.22;100927.33;109239;1254;75207;-65
2024/02/01 06:37:08;;;;;;;7.20;5.80;;;;;;;4.18;79.26;100928.89;109058;1254;138341;-65
2024/02/01 06:42:04;;;;;;;6.50;5.80;;;;;;;4.20;79.44;100940.27;107099;1258;138711;-65
2024/02/01 06:44:43;;;;;;;7.60;5.30;;;;;;;4.22;79.62;100942.14;105143;1254;61226;-66
2024/02/01 06:47:14;;;;;;;6.90;5.50;;;;;;;4.25;79.53;100946.98;104898;1254;139260;-66
2024/02/01 06:50:00;;;;;;;8.70;5.50;;;;;;;4.27;79.53;100945.88;105001;1257;66717;-66
2024/02/01 06:52:39;;;;;;;10.20;5.80;;;;;;;4.29;79.53;100946.31;108942;1254;73498;-65
2024/02/01 06:55:24;;;;;;;8.50;4.60;;;;;;;4.33;79.59;100950.54;108879;1256;139128;-66
2024/02/01 07:11:14;;;;;;;6.20;4.80;;;;;;;4.47;79.96;100960.48;109068;1254;137778;-65
2024/02/01 07:16:36;;;;;;;5.70;4.90;;;;;;;4.48;80.12;100969.41;108081;1254;65785;-66
2024/02/01 07:22:00;;;;;;;4.90;4.00;;;;;;;4.55;80.35;100958.80;109177;1254;59250;-66
2024/02/01 08:00:17;;;;;;;12.60;6.80;;;;;;;5.37;80.25;100987.18;108883;1254;138328;-59
2024/02/01 08:02:50;;;;;;;9.80;7.00;;;;;;;5.46;80.15;100994.21;108981;1254;59320;-59
2024/02/01 08:08:03;;;;;;;14.70;7.00;;;;;;;5.70;80.10;100994.50;109157;1254;75087;-66
2024/02/01 08:10:30;;;;;;;18.80;13.60;;;;;;;5.77;79.94;100995.72;109175;1254;67142;-66
2024/02/01 08:13:05;;;;;;;12.50;8.00;;;;;;;5.81;79.67;100992.24;108867;1259;139797;-66
2024/02/01 08:15:32;;;;;;;13.10;7.50;;;;;;;5.86;79.64;100993.17;109017;1255;59372;-66
2024/02/01 08:17:59;;;;;;;17.20;8.20;;;;;;;5.90;79.48;100994.61;108882;1256;138647;-65
2024/02/01 08:20:26;;;;;;;51.40;32.50;;;;;;;5.96;79.39;100997.88;105852;1256;74656;-65
2024/02/01 08:22:53;;;;;;;29.10;17.40;;;;;;;6.02;79.20;101000.44;104839;1256;65752;-66
2024/02/01 08:25:20;;;;;;;23.00;17.50;;;;;;;6.10;79.17;101002.88;104719;1259;138881;-66
2024/02/01 08:27:52;;;;;;;24.10;15.10;;;;;;;6.19;79.12;100996.35;104828;1256;61267;-65
2024/02/01 08:30:20;;;;;;;29.40;17.20;;;;;;;6.29;79.04;100993.48;108846;1257;138164;-66
2024/02/01 08:32:48;;;;;;;26.50;19.00;;;;;;;6.41;79.04;100993.14;109101;1256;73657;-66
2024/02/01 08:35:15;;;;;;;25.10;12.00;;;;;;;6.51;78.89;100992.23;108982;1256;139061;-66
2024/02/01 08:37:42;;;;;;;19.90;9.60;;;;;;;6.56;78.48;100997.69;108947;1256;72726;-66
2024/02/01 08:40:17;;;;;;;115.10;89.30;;;;;;;6.62;78.35;100998.45;109092;1256;59013;-66
2024/02/01 08:42:44;;;;;;;70.50;50.10;;;;;;;6.70;78.33;101004.20;108974;1256;138918;-66
2024/02/01 08:45:11;;;;;;;57.60;43.00;;;;;;;6.73;78.13;101011.36;109069;1256;75208;-66
2024/02/01 08:47:38;;;;;;;85.00;58.70;;;;;;;6.78;78.04;101014.72;109037;1256;139987;-65
2024/02/01 08:50:06;;;;;;;34.40;19.00;;;;;;;6.83;77.86;101026.08;109084;1256;71407;-65
2024/02/01 08:52:33;;;;;;;23.50;12.90;;;;;;;6.89;77.56;101030.02;109105;1255;59358;-66
2024/02/01 08:55:00;;;;;;;20.40;7.10;;;;;;;6.93;76.95;101036.83;106965;1255;138759;-65
2024/02/01 08:57:27;;;;;;;20.80;5.80;;;;;;;6.91;76.38;101040.55;104924;1257;75649;-65
2024/02/01 08:59:54;;;;;;;28.50;6.50;;;;;;;6.93;76.31;101035.06;104858;1256;138415;-67
2024/02/01 09:02:21;;;;;;;30.20;8.70;;;;;;;6.96;76.04;101029.83;104926;1259;73385;-65
2024/02/01 09:04:52;;;;;;;25.40;6.10;;;;;;;7.00;75.97;101030.67;104868;1259;61347;-67
2024/02/01 09:07:19;;;;;;;22.30;5.40;;;;;;;7.04;75.82;101032.06;107285;1256;138109;-66
2024/02/01 09:09:46;;;;;;;21.80;7.30;;;;;;;7.05;75.42;101033.15;104810;1256;75618;-66
2024/02/01 09:12:16;;;;;;;33.40;7.00;;;;;;;7.03;75.15;101035.15;104844;1259;137774;-66
2024/02/01 09:14:43;;;;;;;32.20;8.80;;;;;;;6.99;75.01;101031.70;104834;1259;71557;-66
2024/02/01 09:17:09;;;;;;;29.40;7.20;;;;;;;6.98;74.80;101028.48;104682;1257;137814;-65
2024/02/01 09:19:36;;;;;;;25.90;6.20;;;;;;;6.99;74.78;101030.62;104864;1254;61335;-66
2024/02/01 09:22:03;;;;;;;22.60;7.20;;;;;;;7.03;74.70;101029.91;105011;1259;73750;-67
2024/02/01 09:24:30;;;;;;;23.80;7.00;;;;;;;7.08;74.65;101034.35;107049;1255;329628;-66
2024/02/01 09:26:57;;;;;;;27.50;5.90;;;;;;;7.14;74.46;101040.34;109162;1254;72050;-67
2024/02/01 09:29:26;;;;;;;25.90;6.30;;;;;;;7.16;74.24;101041.34;109060;1254;139644;-66
2024/02/01 09:31:56;;;;;;;23.40;6.40;;;;;;;7.23;74.16;101038.65;108971;1260;61025;-66
2024/02/01 09:34:22;;;;;;;30.60;8.90;;;;;;;7.27;73.84;101033.23;109183;1254;74399;-66
2024/02/01 09:36:50;;;;;;;25.70;6.40;;;;;;;7.32;73.77;101035.54;108955;1254;138381;-67
2024/02/01 09:39:18;;;;;;;27.30;6.90;;;;;;;7.37;73.50;101036.80;109167;1254;71805;-67
2024/02/01 09:41:46;;;;;;;25.90;6.20;;;;;;;7.38;73.23;101035.98;108877;1255;138233;-66
2024/02/01 09:44:13;;;;;;;24.00;5.50;;;;;;;7.38;72.89;101034.25;108942;1257;59458;-66
2024/02/01 09:46:40;;;;;;;29.20;9.60;;;;;;;7.43;72.91;101029.38;106228;1255;74727;-66
2024/02/01 09:49:07;;;;;;;21.70;6.00;;;;;;;7.44;72.68;101031.52;104725;1259;138212;-66
2024/02/01 09:51:34;;;;;;;25.80;5.90;;;;;;;7.42;72.31;101031.80;104882;1255;73797;-67
2024/02/01 09:54:01;;;;;;;27.80;7.00;;;;;;;7.33;71.94;101024.59;104789;1260;138259;-65
2024/02/01 09:56:28;;;;;;;22.80;5.30;;;;;;;7.30;72.22;101019.40;104837;1261;61243;-66
2024/02/01 09:58:56;;;;;;;25.90;5.70;;;;;;;7.34;72.09;101021.87;104980;1255;75543;-65
2024/02/01 10:01:24;;;;;;;23.70;5.70;;;;;;;7.44;72.21;101027.30;109064;1254;137785;-65
2024/02/01 10:03:52;;;;;;;23.20;4.80;;;;;;;7.50;72.00;101027.39;109019;1254;71876;-66
2024/02/01 10:06:19;;;;;;;26.10;6.50;;;;;;;7.58;72.17;101022.87;109106;1254;137945;-66
2024/02/01 10:08:48;;;;;;;21.00;6.60;;;;;;;7.69;71.89;101021.02;108985;1254;59216;-67
2024/02/01 10:11:19;;;;;;;25.90;5.80;;;;;;;7.70;71.37;101023.34;108760;1254;138104;-66
2024/02/01 10:13:46;;;;;;;26.10;6.00;;;;;;;7.74;71.33;101017.01;109179;1254;66293;-66
2024/02/01 10:16:13;;;;;;;25.00;6.00;;;;;;;7.81;71.11;101014.34;109023;1255;72289;-66
2024/02/01 10:18:43;;;;;;;23.10;5.30;;;;;;;7.84;70.75;101021.28;106398;1254;138082;-67
2024/02/01 10:21:22;;;;;;;21.70;7.60;;;;;;;7.90;70.76;101016.63;104929;1255;61247;-66
2024/02/01 10:23:50;;;;;;;26.20;6.10;;;;;;;7.95;70.57;101006.67;108867;1254;138176;-66
2024/02/01 10:26:23;;;;;;;29.90;5.40;;;;;;;7.92;70.42;101007.45;109003;1257;65112;-66
2024/02/01 10:28:50;;;;;;;22.80;5.40;;;;;;;7.92;70.10;101009.39;109031;1254;72442;-67
2024/02/01 10:31:18;;;;;;;26.00;5.90;;;;;;;7.98;70.16;101006.11;109109;1257;137787;-66
2024/02/01 10:33:45;;;;;;;27.50;5.50;;;;;;;8.03;69.79;100992.50;109217;1256;60373;-67
2024/02/01 10:36:12;;;;;;;15.90;4.60;;;;;;;8.03;69.58;100990.02;109029;1257;138068;-66
2024/02/01 10:38:42;;;;;;;27.10;6.60;;;;;;;8.01;69.31;100981.07;109204;1255;64609;-66
2024/02/01 10:41:12;;;;;;;28.30;5.50;;;;;;;7.98;69.19;100984.10;105134;1261;138086;-66
2024/02/01 10:43:46;;;;;;;22.30;5.20;;;;;;;7.97;69.37;100983.19;108982;1256;59257;-66
2024/02/01 10:46:29;;;;;;;18.70;5.70;;;;;;;8.03;69.30;100988.98;108959;1256;60007;-67
2024/02/01 10:49:06;;;;;;;19.00;4.80;;;;;;;7.98;69.05;100989.00;107298;1258;138204;-67
2024/02/01 10:51:34;;;;;;;28.20;5.50;;;;;;;8.01;69.08;100991.02;104828;1257;66849;-66
2024/02/01 10:54:01;;;;;;;23.20;5.00;;;;;;;8.12;69.32;100989.16;104980;1259;137661;-66
2024/02/01 10:56:29;;;;;;;21.30;4.80;;;;;;;8.20;69.24;100981.80;105147;1255;61296;-66
2024/02/01 10:58:58;;;;;;;19.90;5.60;;;;;;;8.20;68.68;100987.93;109064;1257;60230;-66
2024/02/01 11:01:25;;;;;;;23.80;5.30;;;;;;;8.16;68.54;100985.48;108795;1257;138259;-66
2024/02/01 11:03:56;;;;;;;24.80;5.30;;;;;;;8.17;68.31;100990.27;109040;1257;65368;-67
2024/02/01 11:06:25;;;;;;;27.30;5.70;;;;;;;8.17;68.32;100986.05;108894;1254;137780;-66
2024/02/01 11:08:52;;;;;;;26.90;5.60;;;;;;;8.09;67.90;100979.63;108968;1261;59298;-66
2024/02/01 11:11:22;;;;;;;27.20;6.10;;;;;;;8.02;68.11;100972.36;108785;1262;138181;-66
2024/02/01 11:14:11;;;;;;;23.30;6.60;;;;;;;7.97;67.91;100970.94;109122;1256;75142;-66
2024/02/01 11:16:39;;;;;;;21.00;4.60;;;;;;;7.90;67.94;100972.27;108976;1257;66140;-66
2024/02/01 11:19:10;;;;;;;22.20;4.70;;;;;;;7.85;67.63;100968.73;109003;1256;138603;-66
2024/02/01 11:21:51;;;;;;;20.70;6.50;;;;;;;7.76;67.47;100980.27;109143;1257;58947;-66
2024/02/01 11:24:28;;;;;;;20.80;4.70;;;;;;;7.73;67.58;100979.27;108890;1255;138244;-66
2024/02/01 11:27:00;;;;;;;22.30;4.70;;;;;;;7.76;67.70;100977.46;109016;1254;74054;-66
2024/02/01 11:29:28;;;;;;;20.30;4.90;;;;;;;7.80;67.82;100980.05;109093;1254;139615;-66
2024/02/01 11:31:56;;;;;;;28.30;6.00;;;;;;;7.86;67.85;100975.05;109002;1254;71793;-66
2024/02/01 11:34:24;;;;;;;16.90;4.60;;;;;;;7.92;67.86;100976.19;107633;1260;61276;-66
2024/02/01 11:36:51;;;;;;;29.90;6.10;;;;;;;7.97;67.54;100974.64;107796;1257;137886;-66
2024/02/01 11:39:18;;;;;;;22.60;4.70;;;;;;;7.99;67.45;100976.62;109173;1256;75675;-66
2024/02/01 11:41:48;;;;;;;28.30;5.70;;;;;;;8.02;67.15;100969.40;109021;1257;138471;-66
2024/02/01 11:44:18;;;;;;;31.90;5.30;;;;;;;8.02;67.09;100971.50;105733;1257;70605;-66
2024/02/01 11:46:45;;;;;;;25.30;5.00;;;;;;;8.04;67.04;100970.14;109184;1256;58987;-66
2024/02/01 11:49:19;;;;;;;28.20;6.10;;;;;;;8.07;67.07;100966.60;109134;1254;137895;-67
2024/02/01 11:51:51;;;;;;;23.10;6.40;;;;;;;8.10;67.02;100967.44;108865;1257;75973;-67
2024/02/01 11:54:17;;;;;;;16.90;5.10;;;;;;;8.01;66.67;100972.48;108949;1255;138425;-67
2024/02/01 11:56:44;;;;;;;17.70;5.40;;;;;;;7.91;66.67;100968.60;108955;1255;73029;-67
2024/02/01 11:59:11;;;;;;;26.60;5.70;;;;;;;7.84;66.43;100972.89;109069;1256;138464;-66
2024/02/01 12:01:38;;;;;;;23.90;5.00;;;;;;;7.83;66.45;100964.30;109038;1255;59294;-67
2024/02/01 12:04:06;;;;;;;24.10;5.40;;;;;;;7.87;66.42;100968.98;109031;1254;73441;-67
2024/02/01 12:06:34;;;;;;;21.50;5.10;;;;;;;7.87;66.25;100965.86;108823;1254;138136;-67
2024/02/01 12:09:02;;;;;;;23.30;5.20;;;;;;;7.91;65.93;100962.83;108919;1255;72706;-67
2024/02/01 12:11:34;;;;;;;20.30;4.60;;;;;;;7.94;65.88;100964.19;109042;1254;138358;-66
2024/02/01 12:14:02;;;;;;;23.10;5.00;;;;;;;7.95;65.85;100964.25;109166;1256;59267;-67
2024/02/01 12:16:32;;;;;;;22.50;4.50;;;;;;;8.00;65.85;100963.36;109181;1256;74014;-67
2024/02/01 12:19:01;;;;;;;23.10;5.10;;;;;;;8.03;65.86;100962.60;109058;1254;138525;-67
2024/02/01 12:21:27;;;;;;;21.60;5.20;;;;;;;8.09;65.83;100955.31;109143;1255;72840;-67